Time;durP1;ratioP1;P1;durP2;ratioP2;P2;SDS_P1;SDS_P2;PMS_P1;PMS_P2;Temp;Humidity;BMP_temperature;BMP_pressure;BME280_temperature;BME280_humidity;BME280_pressure;Samples;Min_cycle;Max_cycle;Signal;HPM_P1;HPM_P2
2021/04/05 00:02:20;;;;;;;8.93;5.22;;;7.00;1.00;;;;;;5033968;28;20099;-77
2021/04/05 00:04:51;;;;;;;8.50;5.68;;;7.00;35.20;;;;;;5032295;28;20026;-82
2021/04/05 00:07:16;;;;;;;7.53;5.75;;;7.00;1.00;;;;;;5008470;28;20105;-73
2021/04/05 00:09:42;;;;;;;7.65;5.03;;;6.90;37.50;;;;;;5042343;28;20476;-77
2021/04/05 00:12:09;;;;;;;8.77;5.40;;;6.90;6.70;;;;;;5044362;28;20029;-78
2021/04/05 00:14:36;;;;;;;9.05;4.82;;;6.90;85.30;;;;;;5038295;28;20037;-80
2021/04/05 00:17:02;;;;;;;10.75;5.85;;;6.80;99.90;;;;;;5027231;28;20104;-72
2021/04/05 00:19:28;;;;;;;11.27;5.45;;;6.80;99.90;;;;;;5029909;28;20075;-72
2021/04/05 00:21:53;;;;;;;10.32;5.28;;;6.80;99.90;;;;;;5023563;28;20501;-71
2021/04/05 00:24:19;;;;;;;11.98;5.93;;;6.80;99.90;;;;;;5028894;28;20036;-71
2021/04/05 00:26:45;;;;;;;8.55;6.50;;;6.80;99.90;;;;;;5028923;28;20040;-71
2021/04/05 00:29:10;;;;;;;8.15;4.68;;;6.80;99.90;;;;;;5014516;28;20021;-72
2021/04/05 00:31:36;;;;;;;12.32;5.13;;;6.80;99.90;;;;;;5042732;28;20061;-71
2021/04/05 00:34:02;;;;;;;10.18;5.85;;;6.70;99.90;;;;;;5042354;28;20033;-72
2021/04/05 00:36:27;;;;;;;10.05;6.05;;;6.80;99.90;;;;;;5035318;28;20029;-71
2021/04/05 00:38:53;;;;;;;8.45;5.03;;;6.70;99.90;;;;;;5035917;28;20022;-70
2021/04/05 00:41:18;;;;;;;7.13;4.68;;;6.80;99.90;;;;;;5018551;28;20030;-71
2021/04/05 00:43:47;;;;;;;8.60;5.38;;;6.70;99.90;;;;;;5036038;28;20025;-71
2021/04/05 00:46:19;;;;;;;7.53;4.53;;;6.70;99.90;;;;;;5033057;28;20021;-72
2021/04/05 00:48:45;;;;;;;8.43;4.28;;;6.70;99.90;;;;;;5035483;28;20129;-71
2021/04/05 00:51:17;;;;;;;7.45;4.18;;;7.00;1.00;;;;;;5035859;28;20504;-72
2021/04/05 00:53:44;;;;;;;7.97;4.63;;;7.20;99.90;;;;;;5035937;28;20026;-72
2021/04/05 00:56:12;;;;;;;11.13;5.88;;;7.20;99.90;;;;;;5033354;28;20064;-71
2021/04/05 00:58:38;;;;;;;6.10;4.30;;;7.30;99.90;;;;;;5035367;28;20025;-71
2021/04/05 01:01:07;;;;;;;9.00;5.40;;;7.20;99.90;;;;;;5033332;28;20040;-71
2021/04/05 01:03:35;;;;;;;5.85;4.63;;;7.30;99.90;;;;;;5035078;28;20028;-71
2021/04/05 01:06:09;;;;;;;7.78;4.88;;;7.20;99.90;;;;;;5033577;28;20018;-71
2021/04/05 01:08:35;;;;;;;9.35;5.60;;;7.20;99.90;;;;;;5030098;28;20022;-72
2021/04/05 01:11:01;;;;;;;6.45;4.65;;;7.10;99.90;;;;;;5034005;28;20094;-71
2021/04/05 01:13:26;;;;;;;7.20;4.40;;;7.20;99.90;;;;;;5034469;28;20100;-71
2021/04/05 01:15:52;;;;;;;7.45;4.40;;;7.10;99.90;;;;;;5035441;28;20035;-70
2021/04/05 01:18:20;;;;;;;5.82;3.85;;;7.00;1.00;;;;;;5034513;28;20052;-72
2021/04/05 01:20:46;;;;;;;6.93;4.07;;;7.00;1.00;;;;;;5033400;28;20033;-71
2021/04/05 01:23:13;;;;;;;7.07;4.15;;;6.90;1.00;;;;;;5035571;28;20026;-71
2021/04/05 01:25:38;;;;;;;8.18;4.00;;;6.90;1.00;;;;;;5035545;28;20052;-71
2021/04/05 01:28:06;;;;;;;6.65;3.90;;;6.90;1.00;;;;;;5035652;28;20021;-72
2021/04/05 01:30:39;;;;;;;5.95;3.60;;;6.90;99.90;;;;;;5035734;28;20029;-72
2021/04/05 01:33:24;;;;;;;9.63;3.90;;;7.00;99.90;;;;;;5016654;28;20120;-72
2021/04/05 01:35:54;;;;;;;11.88;4.00;;;7.00;99.90;;;;;;5031810;28;20041;-72
2021/04/05 01:38:33;;;;;;;9.25;4.05;;;7.00;99.90;;;;;;5034515;28;20481;-71
2021/04/05 01:41:07;;;;;;;8.35;4.43;;;7.10;99.90;;;;;;5035074;28;20130;-72
2021/04/05 01:43:33;;;;;;;11.23;4.05;;;7.10;99.90;;;;;;5033409;28;20045;-72
2021/04/05 01:46:00;;;;;;;9.80;4.57;;;7.10;99.90;;;;;;5034606;28;20408;-72
2021/04/05 01:48:27;;;;;;;6.75;4.28;;;7.00;99.90;;;;;;5032073;28;20029;-71
2021/04/05 01:51:03;;;;;;;9.77;5.00;;;6.90;99.90;;;;;;5003674;28;20030;-71
2021/04/05 01:53:29;;;;;;;8.85;5.07;;;6.80;1.00;;;;;;5032602;28;20036;-71
2021/04/05 01:56:00;;;;;;;7.90;4.03;;;6.80;1.00;;;;;;5008716;28;20437;-71
2021/04/05 01:58:26;;;;;;;;;;;6.70;99.90;;;;;;5030603;28;20022;-72
2021/04/05 02:00:52;;;;;;;6.55;4.25;;;6.80;99.90;;;;;;5013614;28;19913;-71
2021/04/05 02:03:18;;;;;;;7.90;4.78;;;6.80;99.90;;;;;;5032420;28;20442;-70
2021/04/05 02:05:51;;;;;;;16.83;3.90;;;6.80;99.90;;;;;;5032146;28;20024;-71
2021/04/05 02:08:21;;;;;;;7.78;5.03;;;6.70;99.90;;;;;;5031072;28;20055;-70
2021/04/05 02:10:47;;;;;;;7.17;4.27;;;6.60;1.00;;;;;;5032588;28;20022;-71
2021/04/05 02:13:13;;;;;;;7.50;3.97;;;6.60;1.00;;;;;;5016022;28;20032;-72
2021/04/05 02:15:39;;;;;;;6.57;3.85;;;6.60;45.20;;;;;;5016020;28;20026;-70
2021/04/05 02:18:05;;;;;;;11.98;5.35;;;6.70;99.90;;;;;;5033598;28;20543;-70
2021/04/05 02:20:31;;;;;;;8.32;4.65;;;6.80;99.90;;;;;;5030469;28;20030;-72
2021/04/05 02:22:58;;;;;;;11.00;4.75;;;6.70;99.90;;;;;;5032883;28;20040;-71
2021/04/05 02:25:27;;;;;;;7.95;4.40;;;6.70;99.90;;;;;;5031046;28;20429;-71
2021/04/05 02:27:53;;;;;;;7.15;4.25;;;6.70;1.00;;;;;;5032246;28;20102;-72
2021/04/05 02:30:24;;;;;;;6.50;4.60;;;6.60;1.00;;;;;;5013971;28;20543;-72
2021/04/05 02:32:52;;;;;;;6.15;4.25;;;6.60;54.80;;;;;;5031915;28;20493;-72
2021/04/05 02:35:18;;;;;;;8.63;5.05;;;6.60;72.20;;;;;;5032976;28;20040;-72
2021/04/05 02:37:44;;;;;;;8.82;4.63;;;6.50;69.90;;;;;;5016864;28;20033;-71
2021/04/05 02:40:11;;;;;;;7.00;4.07;;;6.50;99.90;;;;;;5033417;28;20516;-71
2021/04/05 02:42:37;;;;;;;10.43;6.03;;;6.40;99.90;;;;;;5032308;28;20072;-72
2021/04/05 02:45:05;;;;;;;6.30;3.97;;;6.40;99.90;;;;;;5031617;28;20393;-72
2021/04/05 02:47:31;;;;;;;6.40;4.18;;;6.40;1.00;;;;;;5031764;28;20037;-72
2021/04/05 02:49:56;;;;;;;5.95;4.20;;;6.30;1.00;;;;;;5014620;28;20033;-72
2021/04/05 02:52:23;;;;;;;10.02;4.80;;;6.30;99.90;;;;;;5029979;28;20046;-71
2021/04/05 02:54:49;;;;;;;9.88;4.13;;;6.30;99.90;;;;;;5015011;28;20074;-71
2021/04/05 02:57:15;;;;;;;6.25;3.75;;;6.20;99.90;;;;;;5031358;28;20040;-71
2021/04/05 02:59:40;;;;;;;7.38;4.30;;;6.20;28.60;;;;;;5030830;28;20662;-71
2021/04/05 03:02:07;;;;;;;9.48;4.63;;;6.10;1.00;;;;;;5032473;28;20104;-70
2021/04/05 03:04:33;;;;;;;9.73;5.22;;;6.20;11.20;;;;;;5031246;28;20026;-71
2021/04/05 03:06:58;;;;;;;8.63;3.95;;;6.10;16.60;;;;;;5021927;28;20044;-70
2021/04/05 03:09:24;;;;;;;8.32;4.22;;;6.10;99.90;;;;;;5052504;28;20063;-69
2021/04/05 03:11:52;;;;;;;5.15;3.85;;;6.10;99.90;;;;;;5047560;28;20029;-71
2021/04/05 03:14:18;;;;;;;7.88;4.50;;;6.10;99.90;;;;;;5051163;28;20045;-71
2021/04/05 03:16:45;;;;;;;6.57;4.75;;;6.00;1.00;;;;;;5050929;28;20060;-71
2021/04/05 03:19:12;;;;;;;9.38;4.15;;;6.00;1.00;;;;;;5046094;28;20109;-71
2021/04/05 03:21:42;;;;;;;6.57;4.32;;;6.00;1.00;;;;;;5031994;28;20029;-71
2021/04/05 03:24:09;;;;;;;11.53;4.93;;;6.00;1.00;;;;;;5031049;28;20033;-73
2021/04/05 03:26:35;;;;;;;10.20;4.25;;;5.90;99.90;;;;;;5021501;28;20098;-71
2021/04/05 03:29:00;;;;;;;7.90;4.78;;;6.00;8.90;;;;;;5030802;28;20485;-71
2021/04/05 03:31:32;;;;;;;10.60;5.55;;;6.00;1.00;;;;;;5012286;28;20025;-71
2021/04/05 03:34:08;;;;;;;9.15;4.13;;;6.00;17.40;;;;;;5009010;28;20495;-71
2021/04/05 03:36:52;;;;;;;8.20;4.35;;;6.00;99.90;;;;;;5028964;28;20026;-70
2021/04/05 03:39:18;;;;;;;5.85;4.43;;;5.90;93.50;;;;;;5029726;28;20029;-70
2021/04/05 03:42:05;;;;;;;8.65;4.82;;;5.80;99.90;;;;;;5029620;28;20045;-71
2021/04/05 03:44:58;;;;;;;9.88;4.20;;;5.80;99.90;;;;;;5031454;28;20093;-71
2021/04/05 03:47:38;;;;;;;9.35;4.30;;;5.80;99.90;;;;;;5029949;28;20037;-73
2021/04/05 03:50:09;;;;;;;8.65;4.95;;;5.80;1.00;;;;;;5029327;28;20029;-71
2021/04/05 03:52:40;;;;;;;8.00;5.03;;;5.70;2.70;;;;;;5028666;28;20075;-71
2021/04/05 03:55:07;;;;;;;;;;;5.70;99.90;;;;;;5030384;28;20102;-71
2021/04/05 03:57:55;;;;;;;11.25;5.22;;;5.60;99.90;;;;;;5029417;28;19910;-71
2021/04/05 04:00:23;;;;;;;7.72;4.88;;;5.80;88.20;;;;;;5029060;28;20431;-71
2021/04/05 04:02:52;;;;;;;15.02;7.13;;;5.90;46.60;;;;;;5029141;28;20101;-71
2021/04/05 04:05:44;;;;;;;8.02;6.82;;;5.90;28.30;;;;;;5027683;28;20425;-71
2021/04/05 04:09:00;;;;;;;11.35;5.53;;;5.80;58.70;;;;;;5025829;28;20080;-71
2021/04/05 04:11:06;;;;;;;10.80;5.80;;;5.60;99.90;;;;;;5019462;28;20029;-72
2021/04/05 04:13:38;;;;;;;7.95;5.68;;;5.30;44.70;;;;;;5032685;28;20013;-72
2021/04/05 04:16:05;;;;;;;10.45;6.20;;;5.10;99.90;;;;;;5015252;28;20031;-71
2021/04/05 04:18:31;;;;;;;7.97;5.40;;;5.10;99.90;;;;;;5017019;28;20394;-70
2021/04/05 04:20:58;;;;;;;8.88;5.72;;;5.00;99.90;;;;;;5032377;28;20025;-71
2021/04/05 04:23:24;;;;;;;12.07;7.82;;;4.90;99.90;;;;;;5034357;28;20026;-71
2021/04/05 04:25:53;;;;;;;7.35;5.70;;;4.80;99.90;;;;;;5060081;23;546857;-76
2021/04/05 04:28:19;;;;;;;11.63;5.57;;;4.80;99.90;;;;;;5017005;28;20098;-76
2021/04/05 04:30:53;;;;;;;11.82;6.65;;;4.80;99.90;;;;;;4999331;28;20022;-76
2021/04/05 04:33:18;;;;;;;11.82;5.75;;;4.70;1.00;;;;;;5015828;28;20049;-77
2021/04/05 04:35:45;;;;;;;10.82;5.43;;;4.70;1.00;;;;;;4974112;28;20121;-76
2021/04/05 04:38:12;;;;;;;11.25;6.15;;;4.80;1.00;;;;;;5009652;28;20097;-76
2021/04/05 04:40:38;;;;;;;7.78;5.93;;;4.90;99.90;;;;;;5015889;28;20045;-77
2021/04/05 04:43:06;;;;;;;10.30;5.20;;;4.90;99.90;;;;;;5031975;28;20029;-77
2021/04/05 04:45:33;;;;;;;12.98;5.80;;;5.00;1.00;;;;;;5006695;28;20076;-76
2021/04/05 04:47:59;;;;;;;9.63;5.38;;;5.20;99.90;;;;;;5023475;28;20025;-77
2021/04/05 04:50:27;;;;;;;13.13;5.65;;;5.20;99.90;;;;;;5023333;28;20029;-77
2021/04/05 04:52:54;;;;;;;11.27;5.25;;;5.30;99.90;;;;;;5023697;28;20030;-77
2021/04/05 04:55:21;;;;;;;14.93;5.28;;;5.40;99.90;;;;;;5029967;28;20029;-77
2021/04/05 04:57:46;;;;;;;10.48;5.22;;;5.40;99.90;;;;;;5040147;28;20010;-77
2021/04/05 05:00:13;;;;;;;8.00;4.15;;;5.50;24.60;;;;;;5035662;28;20045;-76
2021/04/05 05:02:40;;;;;;;7.45;4.50;;;5.50;1.00;;;;;;5034029;28;20022;-77
2021/04/05 05:05:07;;;;;;;8.80;4.40;;;5.60;1.00;;;;;;5032453;28;20085;-76
2021/04/05 05:07:35;;;;;;;8.13;4.32;;;5.80;99.90;;;;;;5016554;28;20018;-76
2021/04/05 05:10:03;;;;;;;6.57;4.18;;;5.90;99.90;;;;;;5015021;28;20034;-76
2021/04/05 05:12:30;;;;;;;8.50;4.22;;;6.00;13.60;;;;;;5012314;28;20057;-76
2021/04/05 05:14:55;;;;;;;6.13;4.65;;;6.10;1.00;;;;;;5018468;28;20029;-76
2021/04/05 05:17:21;;;;;;;7.90;3.88;;;6.20;99.90;;;;;;5017701;28;20397;-76
2021/04/05 05:19:49;;;;;;;6.63;4.30;;;6.20;14.90;;;;;;5001582;28;20049;-76
2021/04/05 05:22:16;;;;;;;8.07;4.68;;;6.30;1.00;;;;;;5015829;28;20037;-76
2021/04/05 05:24:44;;;;;;;5.72;3.80;;;6.30;1.00;;;;;;4999276;28;20025;-77
2021/04/05 05:27:12;;;;;;;6.90;3.80;;;6.40;99.90;;;;;;5018037;28;20087;-77
2021/04/05 05:29:41;;;;;;;6.28;3.83;;;6.40;99.90;;;;;;5018060;28;20076;-77
2021/04/05 05:32:08;;;;;;;8.02;4.30;;;6.40;99.90;;;;;;5001491;28;20040;-78
2021/04/05 05:34:34;;;;;;;7.20;3.95;;;6.40;99.90;;;;;;5018636;28;20026;-77
2021/04/05 05:37:01;;;;;;;5.97;4.20;;;6.40;99.90;;;;;;5018081;28;20124;-76
2021/04/05 05:39:27;;;;;;;8.43;4.70;;;6.50;93.30;;;;;;5025240;28;20041;-77
2021/04/05 05:42:29;;;;;;;9.73;4.07;;;6.50;1.00;;;;;;5026773;28;20025;-76
2021/04/05 05:45:03;;;;;;;5.03;3.97;;;6.50;1.00;;;;;;5015206;28;20038;-76
2021/04/05 05:48:00;;;;;;;7.22;4.40;;;6.60;99.90;;;;;;4999802;28;20057;-76
2021/04/05 05:50:37;;;;;;;8.00;3.90;;;6.60;99.90;;;;;;5017422;28;20029;-76
2021/04/05 05:53:40;;;;;;;8.13;4.68;;;6.70;99.90;;;;;;5004137;28;20108;-76
2021/04/05 05:56:31;;;;;;;8.93;3.75;;;6.80;2.20;;;;;;5025280;28;20037;-76
2021/04/05 05:59:00;;;;;;;8.13;3.72;;;6.80;1.00;;;;;;5010509;28;20172;-77
2021/04/05 06:01:34;;;;;;;9.20;4.28;;;6.90;99.90;;;;;;5037307;28;20056;-77
2021/04/05 06:04:21;;;;;;;7.63;4.22;;;6.90;99.90;;;;;;5015877;28;20027;-76
2021/04/05 06:06:57;;;;;;;5.80;4.82;;;7.00;99.90;;;;;;4997375;28;20025;-77
2021/04/05 06:09:44;;;;;;;8.10;4.03;;;7.00;99.90;;;;;;5012528;28;20009;-77
2021/04/05 06:12:42;;;;;;;8.73;3.78;;;7.00;99.90;;;;;;5049522;28;20041;-77
2021/04/05 06:15:28;;;;;;;8.80;4.07;;;7.20;99.90;;;;;;5034843;28;20018;-78
2021/04/05 06:18:16;;;;;;;5.55;4.10;;;7.20;99.90;;;;;;5002090;28;20034;-77
2021/04/05 06:21:11;;;;;;;5.65;4.30;;;7.30;92.10;;;;;;5028336;28;20049;-77
2021/04/05 06:23:44;;;;;;;6.90;4.28;;;7.40;1.00;;;;;;5035891;28;20041;-75
2021/04/05 06:26:39;;;;;;;9.23;4.25;;;7.40;99.90;;;;;;5032860;28;20036;-76
2021/04/05 06:29:16;;;;;;;7.05;3.90;;;7.40;99.90;;;;;;5036429;28;20022;-77
2021/04/05 06:31:51;;;;;;;12.52;6.20;;;7.50;99.90;;;;;;5035179;28;20022;-77
2021/04/05 06:34:35;;;;;;;9.02;4.93;;;7.60;99.90;;;;;;5012857;28;20033;-78
2021/04/05 06:37:21;;;;;;;20.05;8.70;;;7.70;99.90;;;;;;5025421;28;20026;-78
2021/04/05 06:39:50;;;;;;;8.68;5.57;;;7.70;97.80;;;;;;5030867;28;20030;-77
2021/04/05 06:42:39;;;;;;;10.38;4.43;;;7.80;1.00;;;;;;5019869;28;20025;-78
2021/04/05 06:45:47;;;;;;;9.05;4.97;;;7.90;1.00;;;;;;5031357;28;20033;-78
2021/04/05 06:48:38;;;;;;;11.27;4.22;;;8.10;99.90;;;;;;5000780;28;20025;-76
2021/04/05 06:51:45;;;;;;;12.98;5.18;;;8.20;99.90;;;;;;4999471;28;20026;-77
2021/04/05 06:54:37;;;;;;;8.70;3.88;;;8.40;31.30;;;;;;4996929;28;20026;-77
2021/04/05 06:57:18;;;;;;;10.02;4.28;;;8.70;99.90;;;;;;5010299;28;20022;-77
2021/04/05 07:00:00;;;;;;;6.90;4.65;;;9.10;99.90;;;;;;5024015;28;20034;-77
2021/04/05 07:03:04;;;;;;;7.40;4.55;;;9.30;99.90;;;;;;5020483;28;20027;-77
2021/04/05 07:05:56;;;;;;;7.60;5.13;;;9.10;1.00;;;;;;5036448;28;20185;-78
2021/04/05 07:08:34;;;;;;;8.45;5.38;;;8.90;1.00;;;;;;5018233;28;20022;-78
2021/04/05 07:11:09;;;;;;;10.20;5.35;;;8.80;1.00;;;;;;5036912;28;20010;-76
2021/04/05 07:14:03;;;;;;;7.70;5.28;;;8.90;1.00;;;;;;5016939;28;20018;-76
2021/04/05 07:16:36;;;;;;;9.23;4.72;;;9.00;66.70;;;;;;5010601;28;20021;-77
2021/04/05 07:19:31;;;;;;;8.70;4.90;;;8.90;1.00;;;;;;5025062;28;20433;-76
2021/04/05 07:22:21;;;;;;;7.53;4.80;;;9.00;1.00;;;;;;4973522;28;20044;-76
2021/04/05 07:24:53;;;;;;;7.55;4.28;;;9.20;99.90;;;;;;5008714;28;20389;-76
2021/04/05 07:27:55;;;;;;;5.47;3.90;;;9.10;99.90;;;;;;5004025;28;20030;-76
2021/04/05 07:30:32;;;;;;;5.60;4.15;;;9.20;11.90;;;;;;5021949;28;20029;-77
2021/04/05 07:33:04;;;;;;;6.63;4.43;;;9.40;11.30;;;;;;5020164;28;20030;-76
2021/04/05 07:35:50;;;;;;;8.18;5.07;;;9.60;30.60;;;;;;5000288;28;20034;-76
2021/04/05 07:38:27;;;;;;;11.88;4.40;;;9.60;1.00;;;;;;5017202;28;20400;-77
2021/04/05 07:41:30;;;;;;;9.18;4.53;;;9.80;1.00;;;;;;5001322;28;20037;-78
2021/04/05 07:44:03;;;;;;;8.95;5.00;;;10.10;99.90;;;;;;5010332;28;20053;-77
2021/04/05 07:46:42;;;;;;;5.50;3.55;;;10.40;99.90;;;;;;5019660;28;20036;-78
2021/04/05 07:49:12;;;;;;;7.53;3.92;;;10.60;76.20;;;;;;5015326;28;20052;-77
2021/04/05 07:52:06;;;;;;;9.13;3.85;;;10.80;1.00;;;;;;5018573;28;20018;-77
2021/04/05 07:54:38;;;;;;;7.55;4.05;;;10.80;1.00;;;;;;4998355;28;20103;-77
2021/04/05 07:57:22;;;;;;;9.32;3.30;;;11.00;1.00;;;;;;5014936;28;20026;-77
2021/04/05 08:00:06;;;;;;;7.18;3.90;;;11.20;1.00;;;;;;4989356;28;20502;-76
2021/04/05 08:03:11;;;;;;;7.88;4.10;;;11.30;1.00;;;;;;5014634;28;20024;-76
2021/04/05 08:05:57;;;;;;;7.55;3.65;;;11.20;99.90;;;;;;5006682;28;20112;-76
2021/04/05 08:09:01;;;;;;;7.53;3.35;;;11.60;99.90;;;;;;4995844;28;20109;-77
2021/04/05 08:11:44;;;;;;;11.32;4.57;;;11.90;99.90;;;;;;5018857;28;20036;-76
2021/04/05 08:14:29;;;;;;;6.70;4.38;;;11.90;99.90;;;;;;5018990;28;20038;-77
2021/04/05 08:17:12;;;;;;;9.50;4.20;;;12.20;99.90;;;;;;5016438;28;20045;-77
2021/04/05 08:19:56;;;;;;;10.77;4.28;;;12.20;99.90;;;;;;5009553;28;20033;-76
2021/04/05 08:22:55;;;;;;;9.18;3.92;;;12.40;99.90;;;;;;4997149;28;20047;-77
2021/04/05 08:25:44;;;;;;;9.85;3.78;;;12.70;99.90;;;;;;4998672;28;20038;-76
2021/04/05 08:28:21;;;;;;;8.82;3.50;;;12.90;99.90;;;;;;5020156;28;20053;-76
2021/04/05 08:31:01;;;;;;;6.13;3.28;;;12.50;99.90;;;;;;5016443;28;20041;-77
2021/04/05 08:33:33;;;;;;;10.43;3.80;;;12.80;99.90;;;;;;5015863;28;20026;-77
2021/04/05 08:36:37;;;;;;;5.32;3.10;;;13.00;99.90;;;;;;5014627;28;20026;-76
2021/04/05 08:39:13;;;;;;;14.20;4.45;;;13.40;99.90;;;;;;5009973;28;20057;-78
2021/04/05 08:41:48;;;;;;;6.63;3.20;;;13.40;99.90;;;;;;5007955;28;20028;-74
2021/04/05 08:44:52;;;;;;;5.97;3.20;;;13.30;99.90;;;;;;5020314;28;20018;-75
2021/04/05 08:47:31;;;;;;;7.32;3.08;;;13.60;99.90;;;;;;5017709;28;20030;-75
2021/04/05 08:50:04;;;;;;;4.75;2.65;;;13.90;99.90;;;;;;5016988;28;20393;-75
2021/04/05 08:52:34;;;;;;;6.22;2.25;;;13.50;99.90;;;;;;4998736;28;20030;-74
2021/04/05 08:55:02;;;;;;;5.35;2.88;;;13.60;99.90;;;;;;5018018;28;20022;-75
2021/04/05 08:57:33;;;;;;;10.48;4.10;;;13.40;99.90;;;;;;5002041;28;20097;-77
2021/04/05 09:00:11;;;;;;;6.25;2.67;;;13.20;97.60;;;;;;5024753;28;20049;-75
2021/04/05 09:02:40;;;;;;;8.73;2.85;;;13.30;94.70;;;;;;5019684;28;20390;-76
2021/04/05 09:05:10;;;;;;;6.93;3.33;;;13.30;87.20;;;;;;5018797;28;20127;-76
2021/04/05 09:08:03;;;;;;;5.17;3.00;;;13.30;69.10;;;;;;5019675;28;20018;-75
2021/04/05 09:10:49;;;;;;;10.80;3.50;;;13.20;56.70;;;;;;5018676;28;20562;-76
2021/04/05 09:13:43;;;;;;;7.25;2.88;;;13.00;46.00;;;;;;5017865;28;20082;-76
2021/04/05 09:16:21;;;;;;;6.25;2.85;;;12.90;41.30;;;;;;5017510;28;20493;-70
2021/04/05 09:19:06;;;;;;;5.95;2.97;;;12.80;40.50;;;;;;5015166;28;20113;-74
2021/04/05 09:21:51;;;;;;;8.57;2.70;;;12.80;38.30;;;;;;5015997;28;20034;-75
2021/04/05 09:24:48;;;;;;;6.95;3.15;;;12.90;36.30;;;;;;5012540;28;20040;-75
2021/04/05 09:27:45;;;;;;;5.13;2.88;;;12.80;34.80;;;;;;5019297;28;20049;-76
2021/04/05 09:30:32;;;;;;;5.57;2.80;;;12.90;34.40;;;;;;4997399;28;20076;-75
2021/04/05 09:33:20;;;;;;;10.23;4.78;;;13.20;30.50;;;;;;5005824;28;20134;-75
2021/04/05 09:36:02;;;;;;;9.55;2.50;;;13.20;28.20;;;;;;5031403;28;20093;-78
2021/04/05 09:38:52;;;;;;;5.40;2.63;;;13.10;28.10;;;;;;5034734;28;20009;-78
2021/04/05 09:41:39;;;;;;;6.05;2.92;;;13.20;27.50;;;;;;5034885;28;20065;-76
2021/04/05 09:44:10;;;;;;;5.03;2.35;;;13.40;28.80;;;;;;5029625;28;20018;-77
2021/04/05 09:47:04;;;;;;;6.05;2.50;;;13.30;26.50;;;;;;5037408;28;20018;-76
2021/04/05 09:49:48;;;;;;;4.60;2.38;;;13.30;21.40;;;;;;5036746;28;20046;-75
2021/04/05 09:52:21;;;;;;;13.05;3.65;;;13.10;16.30;;;;;;5019470;28;20013;-76
2021/04/05 09:54:59;;;;;;;9.82;3.20;;;13.40;16.10;;;;;;5008421;28;20022;-77
2021/04/05 09:57:38;;;;;;;7.43;2.95;;;13.40;13.60;;;;;;5018788;28;20038;-76
2021/04/05 10:00:14;;;;;;;6.70;2.83;;;13.50;15.20;;;;;;5016553;28;20033;-77
2021/04/05 10:02:48;;;;;;;6.50;2.20;;;13.70;16.00;;;;;;5032927;28;20416;-80
2021/04/05 10:05:15;;;;;;;5.05;2.50;;;13.50;14.20;;;;;;5026094;28;20022;-77
2021/04/05 10:07:46;;;;;;;7.57;3.28;;;13.70;14.00;;;;;;5013069;28;20032;-77
2021/04/05 10:10:13;;;;;;;5.90;2.45;;;13.70;9.60;;;;;;5037335;28;20033;-76
2021/04/05 10:12:41;;;;;;;6.47;3.00;;;13.80;6.60;;;;;;5035790;28;20041;-75
2021/04/05 10:15:11;;;;;;;6.13;2.58;;;13.70;4.20;;;;;;5038304;28;20057;-76
2021/04/05 10:17:45;;;;;;;6.05;3.17;;;13.80;3.00;;;;;;5037918;28;20029;-77
2021/04/05 10:20:12;;;;;;;5.53;2.35;;;13.80;2.30;;;;;;5036867;28;20025;-77
2021/04/05 10:22:46;;;;;;;6.75;2.47;;;13.80;1.00;;;;;;5019679;28;20133;-76
2021/04/05 10:25:15;;;;;;;5.88;2.60;;;13.70;1.00;;;;;;5059218;23;20033;-75
2021/04/05 10:27:43;;;;;;;5.32;2.97;;;13.70;1.00;;;;;;5054595;28;20033;-73
2021/04/05 10:30:12;;;;;;;4.93;2.35;;;13.40;1.00;;;;;;5057038;28;20422;-75
2021/04/05 10:32:41;;;;;;;6.18;2.38;;;13.50;1.00;;;;;;5057214;28;20174;-75
2021/04/05 10:35:09;;;;;;;7.13;3.38;;;13.50;1.00;;;;;;5046972;28;20471;-75
2021/04/05 10:37:40;;;;;;;5.72;2.45;;;13.90;1.00;;;;;;5027984;28;20022;-75
2021/04/05 10:40:12;;;;;;;7.65;3.03;;;14.10;1.00;;;;;;5010484;28;20030;-73
2021/04/05 10:42:43;;;;;;;7.47;2.70;;;13.90;1.00;;;;;;5018073;28;20132;-75
2021/04/05 10:45:16;;;;;;;5.47;2.40;;;14.00;1.00;;;;;;5013877;28;20103;-76
2021/04/05 10:47:54;;;;;;;7.47;3.05;;;14.20;1.00;;;;;;5035455;28;20021;-74
2021/04/05 10:50:26;;;;;;;5.10;2.45;;;14.10;1.00;;;;;;5017735;28;20080;-74
2021/04/05 10:52:54;;;;;;;4.22;2.45;;;14.30;1.00;;;;;;5026528;28;20032;-74
2021/04/05 10:55:23;;;;;;;8.23;2.28;;;14.10;1.00;;;;;;5042061;28;20549;-73
2021/04/05 10:57:58;;;;;;;5.78;2.53;;;14.00;1.00;;;;;;5051071;28;20044;-74
2021/04/05 11:00:31;;;;;;;5.28;2.50;;;14.10;1.00;;;;;;5035453;28;20025;-75
2021/04/05 11:03:11;;;;;;;7.43;2.20;;;14.40;1.00;;;;;;5057219;28;20105;-73
2021/04/05 11:05:38;;;;;;;4.28;2.17;;;14.40;1.00;;;;;;5056642;28;20098;-74
2021/04/05 11:08:05;;;;;;;5.18;2.45;;;14.20;1.00;;;;;;5055374;28;20183;-74
2021/04/05 11:10:36;;;;;;;7.35;3.17;;;14.00;1.00;;;;;;5024876;28;20026;-74
2021/04/05 11:13:04;;;;;;;7.85;2.85;;;14.20;1.00;;;;;;5038213;28;20072;-75
2021/04/05 11:15:31;;;;;;;6.95;3.05;;;14.00;1.00;;;;;;5040621;28;20014;-76
2021/04/05 11:18:01;;;;;;;10.13;3.15;;;14.10;1.00;;;;;;5020305;28;20040;-73
2021/04/05 11:20:30;;;;;;;6.32;2.70;;;14.20;1.00;;;;;;5017814;28;20037;-73
2021/04/05 11:23:01;;;;;;;9.38;3.22;;;14.10;1.00;;;;;;5017437;28;20108;-75
2021/04/05 11:25:40;;;;;;;8.80;3.53;;;13.80;1.00;;;;;;5035734;28;20037;-74
2021/04/05 11:28:28;;;;;;;8.88;4.22;;;13.80;1.00;;;;;;5020531;28;20018;-76
2021/04/05 11:31:17;;;;;;;5.50;3.42;;;13.40;1.00;;;;;;5036144;28;20486;-76
2021/04/05 11:33:57;;;;;;;9.88;4.10;;;13.40;1.00;;;;;;5026192;28;20038;-75
2021/04/05 11:36:33;;;;;;;12.23;6.45;;;13.40;1.00;;;;;;5038346;28;20484;-76
2021/04/05 11:39:00;;;;;;;11.07;5.97;;;13.40;1.00;;;;;;5037855;28;20377;-73
2021/04/05 11:41:28;;;;;;;8.27;5.13;;;13.40;1.00;;;;;;5036767;28;20021;-75
2021/04/05 11:44:00;;;;;;;10.38;5.28;;;13.40;1.00;;;;;;5036670;28;20025;-75
2021/04/05 11:46:37;;;;;;;8.73;4.78;;;13.20;1.00;;;;;;5018456;28;20026;-74
2021/04/05 11:49:07;;;;;;;7.43;4.60;;;13.20;1.00;;;;;;5019454;28;20030;-75
2021/04/05 11:52:02;;;;;;;11.63;5.15;;;13.10;1.00;;;;;;5036533;28;20097;-75
2021/04/05 11:54:50;;;;;;;12.07;4.95;;;13.30;2.40;;;;;;5033502;28;20036;-74
2021/04/05 11:57:30;;;;;;;12.32;4.85;;;13.00;3.80;;;;;;4999141;28;20490;-76
2021/04/05 12:00:03;;;;;;;6.68;5.13;;;12.70;6.30;;;;;;4999853;28;20041;-75
2021/04/05 12:02:55;;;;;;;8.68;4.93;;;12.60;10.20;;;;;;5016957;28;20128;-75
2021/04/05 12:05:37;;;;;;;14.07;6.60;;;12.50;10.60;;;;;;5015933;28;20385;-76
2021/04/05 12:08:11;;;;;;;12.30;5.32;;;12.30;14.50;;;;;;5029159;28;20049;-76
2021/04/05 12:10:40;;;;;;;10.40;5.65;;;12.50;18.10;;;;;;5025345;28;20026;-76
2021/04/05 12:13:14;;;;;;;12.43;5.80;;;12.60;18.40;;;;;;5007502;28;20034;-77
2021/04/05 12:15:42;;;;;;;11.85;6.43;;;12.40;22.20;;;;;;5035795;28;20026;-76
2021/04/05 12:18:10;;;;;;;11.95;6.53;;;12.60;26.20;;;;;;5027543;28;20053;-75
2021/04/05 12:20:36;;;;;;;9.93;6.28;;;12.70;29.30;;;;;;5034890;28;20500;-77
2021/04/05 12:23:07;;;;;;;15.68;7.50;;;12.20;56.90;;;;;;5030192;28;20040;-75
2021/04/05 12:25:36;;;;;;;14.18;7.60;;;12.00;93.10;;;;;;5032003;28;20022;-75
2021/04/05 12:28:04;;;;;;;13.55;7.95;;;12.00;99.90;;;;;;5006555;28;20029;-76
2021/04/05 12:30:31;;;;;;;12.50;8.95;;;12.00;99.90;;;;;;5023726;28;20029;-76
2021/04/05 12:32:58;;;;;;;17.10;9.63;;;11.80;99.90;;;;;;5037722;28;20489;-76
2021/04/05 12:35:25;;;;;;;15.93;9.30;;;11.70;99.90;;;;;;5039404;28;20056;-75
2021/04/05 12:38:00;;;;;;;15.05;7.65;;;11.60;99.90;;;;;;5033313;28;20057;-76
2021/04/05 12:40:32;;;;;;;20.98;9.20;;;11.60;99.90;;;;;;5012162;28;20029;-77
2021/04/05 12:43:09;;;;;;;14.93;9.43;;;11.60;99.90;;;;;;5018823;28;20022;-75
2021/04/05 12:45:35;;;;;;;17.58;9.88;;;11.70;1.00;;;;;;5032913;28;20029;-76
2021/04/05 12:48:03;;;;;;;16.92;8.88;;;11.80;99.90;;;;;;5041087;28;20024;-75
2021/04/05 12:50:35;;;;;;;17.95;7.32;;;11.60;1.00;;;;;;5041816;28;20073;-76
2021/04/05 12:53:05;;;;;;;18.55;10.25;;;11.30;1.00;;;;;;5042125;28;20036;-74
2021/04/05 12:55:42;;;;;;;20.95;10.38;;;11.20;1.00;;;;;;5039737;28;20026;-74
2021/04/05 12:58:08;;;;;;;20.90;11.88;;;11.30;26.20;;;;;;5040104;28;20108;-75
2021/04/05 13:00:42;;;;;;;23.58;10.07;;;11.50;16.60;;;;;;5034750;28;20026;-75
2021/04/05 13:03:21;;;;;;;16.13;10.30;;;11.40;30.70;;;;;;5027367;28;20022;-76
2021/04/05 13:06:06;;;;;;;18.05;10.13;;;11.50;37.20;;;;;;5025935;28;20021;-76
2021/04/05 13:08:52;;;;;;;20.05;10.55;;;11.60;29.80;;;;;;5039084;28;20014;-73
2021/04/05 13:11:35;;;;;;;28.58;11.13;;;11.70;9.40;;;;;;5019256;28;20421;-74
2021/04/05 13:14:05;;;;;;;14.57;8.18;;;11.60;1.00;;;;;;5002417;28;20084;-73
2021/04/05 13:16:44;;;;;;;16.10;9.00;;;11.50;1.00;;;;;;5035961;28;20030;-73
2021/04/05 13:19:25;;;;;;;17.63;9.80;;;11.50;1.00;;;;;;5025817;28;20100;-76
2021/04/05 13:21:51;;;;;;;14.57;9.57;;;11.60;1.00;;;;;;5016063;28;20033;-76
2021/04/05 13:24:23;;;;;;;23.35;8.80;;;11.60;1.00;;;;;;5032172;28;20020;-76
2021/04/05 13:26:53;;;;;;;16.88;9.68;;;11.30;1.00;;;;;;5036404;28;20030;-76
2021/04/05 13:29:29;;;;;;;16.88;8.35;;;11.30;1.00;;;;;;5005062;28;20024;-76
2021/04/05 13:32:01;;;;;;;18.58;9.02;;;11.30;1.00;;;;;;5009666;28;20049;-76